sensor_id;sensor_type;location;lat;lon;timestamp;pressure;altitude;pressure_sealevel;temperature;humidity
11808;BME280;5961;42.640;23.380;2022-07-29T00:01:38;94244.13;;;20.14;96.58
11808;BME280;5961;42.640;23.380;2022-07-29T00:04:04;94247.97;;;20.20;96.50
11808;BME280;5961;42.640;23.380;2022-07-29T00:06:31;94258.75;;;20.13;96.22
11808;BME280;5961;42.640;23.380;2022-07-29T00:08:58;94252.22;;;20.18;96.09
11808;BME280;5961;42.640;23.380;2022-07-29T00:11:24;94271.47;;;20.16;96.64
11808;BME280;5961;42.640;23.380;2022-07-29T00:13:52;94268.03;;;20.05;97.45
11808;BME280;5961;42.640;23.380;2022-07-29T00:16:19;94268.41;;;20.14;97.12
11808;BME280;5961;42.640;23.380;2022-07-29T00:18:46;94273.41;;;20.19;96.88
11808;BME280;5961;42.640;23.380;2022-07-29T00:21:13;94270.34;;;20.24;95.79
11808;BME280;5961;42.640;23.380;2022-07-29T00:23:40;94275.00;;;20.28;95.47
11808;BME280;5961;42.640;23.380;2022-07-29T00:26:07;94278.84;;;20.30;94.75
11808;BME280;5961;42.640;23.380;2022-07-29T00:28:33;94273.44;;;20.30;94.75
11808;BME280;5961;42.640;23.380;2022-07-29T00:31:01;94265.72;;;20.32;95.20
11808;BME280;5961;42.640;23.380;2022-07-29T00:33:28;94257.25;;;20.34;95.08
11808;BME280;5961;42.640;23.380;2022-07-29T00:35:55;94266.09;;;20.45;94.77
11808;BME280;5961;42.640;23.380;2022-07-29T00:38:21;94267.22;;;20.51;94.09
11808;BME280;5961;42.640;23.380;2022-07-29T00:40:48;94231.81;;;20.28;94.41
11808;BME280;5961;42.640;23.380;2022-07-29T00:43:14;94244.88;;;20.43;94.72
11808;BME280;5961;42.640;23.380;2022-07-29T00:45:41;94263.34;;;20.59;94.68
11808;BME280;5961;42.640;23.380;2022-07-29T00:48:10;94268.75;;;20.59;94.94
11808;BME280;5961;42.640;23.380;2022-07-29T00:50:37;94267.22;;;20.54;95.19
11808;BME280;5961;42.640;23.380;2022-07-29T00:53:05;94263.75;;;20.50;95.57
11808;BME280;5961;42.640;23.380;2022-07-29T00:55:32;94271.84;;;20.54;95.56
11808;BME280;5961;42.640;23.380;2022-07-29T00:57:59;94268.78;;;20.52;96.01
11808;BME280;5961;42.640;23.380;2022-07-29T01:00:28;94274.97;;;20.49;96.03
11808;BME280;5961;42.640;23.380;2022-07-29T01:02:54;94264.91;;;20.53;96.02
11808;BME280;5961;42.640;23.380;2022-07-29T01:05:24;94262.97;;;20.57;95.51
11808;BME280;5961;42.640;23.380;2022-07-29T01:07:53;94265.66;;;20.64;95.07
11808;BME280;5961;42.640;23.380;2022-07-29T01:10:21;94261.00;;;20.75;94.58
11808;BME280;5961;42.640;23.380;2022-07-29T01:12:50;94258.66;;;20.84;94.51
11808;BME280;5961;42.640;23.380;2022-07-29T01:15:18;94250.13;;;20.89;93.46
11808;BME280;5961;42.640;23.380;2022-07-29T01:17:50;94257.03;;;21.01;93.10
11808;BME280;5961;42.640;23.380;2022-07-29T01:20:26;94259.75;;;21.11;92.85
11808;BME280;5961;42.640;23.380;2022-07-29T01:23:24;94266.66;;;21.16;92.35
11808;BME280;5961;42.640;23.380;2022-07-29T01:26:32;94264.31;;;21.21;91.70
11808;BME280;5961;42.640;23.380;2022-07-29T01:29:12;94263.13;;;21.29;91.17
11808;BME280;5961;42.640;23.380;2022-07-29T01:31:44;94259.63;;;21.32;89.54
11808;BME280;5961;42.640;23.380;2022-07-29T01:34:18;94260.00;;;21.34;88.69
11808;BME280;5961;42.640;23.380;2022-07-29T01:36:51;94251.47;;;21.40;88.31
11808;BME280;5961;42.640;23.380;2022-07-29T01:39:22;94253.38;;;21.43;87.93
11808;BME280;5961;42.640;23.380;2022-07-29T01:41:55;94252.19;;;21.51;87.30
11808;BME280;5961;42.640;23.380;2022-07-29T01:44:30;94249.06;;;21.56;86.26
11808;BME280;5961;42.640;23.380;2022-07-29T01:47:02;94197.50;;;21.22;86.47
11808;BME280;5961;42.640;23.380;2022-07-29T01:49:35;94249.41;;;21.61;86.96
11808;BME280;5961;42.640;23.380;2022-07-29T01:52:07;94242.81;;;21.66;87.83
11808;BME280;5961;42.640;23.380;2022-07-29T01:54:38;94237.44;;;21.62;88.64
11808;BME280;5961;42.640;23.380;2022-07-29T01:57:09;94243.66;;;21.56;88.03
11808;BME280;5961;42.640;23.380;2022-07-29T01:59:40;94237.91;;;21.47;88.01
11808;BME280;5961;42.640;23.380;2022-07-29T02:02:09;94235.22;;;21.47;88.28
11808;BME280;5961;42.640;23.380;2022-07-29T02:04:38;94233.75;;;21.35;88.97
11808;BME280;5961;42.640;23.380;2022-07-29T02:07:10;94227.22;;;21.25;89.47
11808;BME280;5961;42.640;23.380;2022-07-29T02:09:40;94237.34;;;21.00;90.70
11808;BME280;5961;42.640;23.380;2022-07-29T02:12:09;94238.53;;;20.92;91.26
11808;BME280;5961;42.640;23.380;2022-07-29T02:14:42;94229.31;;;20.83;92.22
11808;BME280;5961;42.640;23.380;2022-07-29T02:17:11;94235.06;;;20.92;92.11
11808;BME280;5961;42.640;23.380;2022-07-29T02:19:39;94223.91;;;20.86;92.13
11808;BME280;5961;42.640;23.380;2022-07-29T02:22:08;94211.97;;;20.84;92.13
11808;BME280;5961;42.640;23.380;2022-07-29T02:24:38;94218.50;;;20.86;92.17
11808;BME280;5961;42.640;23.380;2022-07-29T02:27:07;94217.75;;;20.82;92.44
11808;BME280;5961;42.640;23.380;2022-07-29T02:29:35;94223.56;;;20.77;92.84
11808;BME280;5961;42.640;23.380;2022-07-29T02:32:06;94231.34;;;20.61;93.74
11808;BME280;5961;42.640;23.380;2022-07-29T02:34:35;94224.03;;;20.58;93.99
11808;BME280;5961;42.640;23.380;2022-07-29T02:37:04;94220.94;;;20.52;94.01
11808;BME280;5961;42.640;23.380;2022-07-29T02:39:34;94220.16;;;20.55;94.48
11808;BME280;5961;42.640;23.380;2022-07-29T02:42:04;94215.94;;;20.54;94.67
11808;BME280;5961;42.640;23.380;2022-07-29T02:44:32;94209.41;;;20.45;94.90
11808;BME280;5961;42.640;23.380;2022-07-29T02:47:06;94211.31;;;20.55;94.84
11808;BME280;5961;42.640;23.380;2022-07-29T02:49:36;94215.53;;;20.56;95.37
11808;BME280;5961;42.640;23.380;2022-07-29T02:52:08;94200.09;;;20.49;94.99
11808;BME280;5961;42.640;23.380;2022-07-29T02:54:39;94201.72;;;20.33;95.78
11808;BME280;5961;42.640;23.380;2022-07-29T02:57:13;94198.63;;;20.23;96.20
11808;BME280;5961;42.640;23.380;2022-07-29T02:59:43;94195.94;;;19.95;98.13
11808;BME280;5961;42.640;23.380;2022-07-29T03:02:14;94200.22;;;19.82;100.00
11808;BME280;5961;42.640;23.380;2022-07-29T03:04:42;94207.91;;;19.80;100.00
11808;BME280;5961;42.640;23.380;2022-07-29T03:07:11;94210.59;;;19.87;100.00
11808;BME280;5961;42.640;23.380;2022-07-29T03:09:40;94203.66;;;19.93;100.00
11808;BME280;5961;42.640;23.380;2022-07-29T03:12:08;94207.13;;;20.04;100.00
11808;BME280;5961;42.640;23.380;2022-07-29T03:14:36;94204.78;;;20.13;100.00
11808;BME280;5961;42.640;23.380;2022-07-29T03:17:03;94204.00;;;20.20;100.00
11808;BME280;5961;42.640;23.380;2022-07-29T03:19:32;94204.41;;;20.29;99.90
11808;BME280;5961;42.640;23.380;2022-07-29T03:21:59;94210.19;;;20.35;99.78
11808;BME280;5961;42.640;23.380;2022-07-29T03:24:30;94225.59;;;20.45;99.14
11808;BME280;5961;42.640;23.380;2022-07-29T03:26:57;94214.00;;;20.55;98.46
11808;BME280;5961;42.640;23.380;2022-07-29T03:29:25;94148.50;;;20.22;97.80
11808;BME280;5961;42.640;23.380;2022-07-29T03:31:52;94216.66;;;20.69;97.38
11808;BME280;5961;42.640;23.380;2022-07-29T03:34:19;94223.19;;;20.78;96.75
11808;BME280;5961;42.640;23.380;2022-07-29T03:36:48;94210.41;;;20.79;96.30
11808;BME280;5961;42.640;23.380;2022-07-29T03:39:17;94206.94;;;20.82;96.09
11808;BME280;5961;42.640;23.380;2022-07-29T03:41:45;94181.56;;;20.62;96.11
11808;BME280;5961;42.640;23.380;2022-07-29T03:44:15;94219.28;;;20.90;96.04
11808;BME280;5961;42.640;23.380;2022-07-29T03:46:43;94213.91;;;20.79;96.08
11808;BME280;5961;42.640;23.380;2022-07-29T03:49:11;94217.00;;;20.78;95.90
11808;BME280;5961;42.640;23.380;2022-07-29T03:51:41;94225.47;;;20.87;95.43
11808;BME280;5961;42.640;23.380;2022-07-29T03:54:10;94229.28;;;20.93;94.64
11808;BME280;5961;42.640;23.380;2022-07-29T03:56:39;94204.22;;;20.82;93.99
11808;BME280;5961;42.640;23.380;2022-07-29T03:59:06;94223.09;;;20.96;92.92
11808;BME280;5961;42.640;23.380;2022-07-29T04:01:34;94236.63;;;20.96;92.76
11808;BME280;5961;42.640;23.380;2022-07-29T04:04:01;94236.97;;;21.02;92.79
11808;BME280;5961;42.640;23.380;2022-07-29T04:06:29;94232.34;;;21.02;92.06
11808;BME280;5961;42.640;23.380;2022-07-29T04:08:55;94224.59;;;21.08;91.59
11808;BME280;5961;42.640;23.380;2022-07-29T04:11:23;94236.19;;;21.01;92.17
11808;BME280;5961;42.640;23.380;2022-07-29T04:13:50;94235.41;;;21.08;92.05
11808;BME280;5961;42.640;23.380;2022-07-29T04:16:17;94239.25;;;21.03;91.94
11808;BME280;5961;42.640;23.380;2022-07-29T04:18:44;94228.88;;;20.98;92.30
11808;BME280;5961;42.640;23.380;2022-07-29T04:21:10;94230.06;;;20.94;92.20
11808;BME280;5961;42.640;23.380;2022-07-29T04:23:37;94225.09;;;20.78;93.33
11808;BME280;5961;42.640;23.380;2022-07-29T04:26:04;94237.13;;;20.56;94.45
11808;BME280;5961;42.640;23.380;2022-07-29T04:28:32;94219.41;;;20.41;96.07
11808;BME280;5961;42.640;23.380;2022-07-29T04:30:58;94220.97;;;20.35;96.83
11808;BME280;5961;42.640;23.380;2022-07-29T04:33:25;94111.22;;;19.68;96.92
11808;BME280;5961;42.640;23.380;2022-07-29T04:35:52;94215.97;;;20.37;97.33
11808;BME280;5961;42.640;23.380;2022-07-29T04:38:19;94230.59;;;20.46;97.03
11808;BME280;5961;42.640;23.380;2022-07-29T04:40:45;94222.88;;;20.52;96.59
11808;BME280;5961;42.640;23.380;2022-07-29T04:43:12;94227.09;;;20.60;96.25
11808;BME280;5961;42.640;23.380;2022-07-29T04:45:41;94231.31;;;20.71;95.58
11808;BME280;5961;42.640;23.380;2022-07-29T04:48:08;94240.13;;;20.86;95.33
11808;BME280;5961;42.640;23.380;2022-07-29T04:50:37;94236.63;;;20.96;94.85
11808;BME280;5961;42.640;23.380;2022-07-29T04:53:04;94240.81;;;21.04;93.76
11808;BME280;5961;42.640;23.380;2022-07-29T04:55:31;94240.03;;;21.11;93.62
11808;BME280;5961;42.640;23.380;2022-07-29T04:57:58;94229.94;;;21.22;93.17
11808;BME280;5961;42.640;23.380;2022-07-29T05:00:25;94244.56;;;21.31;92.77
11808;BME280;5961;42.640;23.380;2022-07-29T05:02:53;94249.88;;;21.46;92.23
11808;BME280;5961;42.640;23.380;2022-07-29T05:05:20;94254.47;;;21.56;91.86
11808;BME280;5961;42.640;23.380;2022-07-29T05:07:46;94255.16;;;21.67;91.41
11808;BME280;5961;42.640;23.380;2022-07-29T05:10:13;94259.75;;;21.77;90.99
11808;BME280;5961;42.640;23.380;2022-07-29T05:12:40;94254.28;;;21.84;90.94
11808;BME280;5961;42.640;23.380;2022-07-29T05:15:08;94253.09;;;21.92;90.56
11808;BME280;5961;42.640;23.380;2022-07-29T05:17:35;94257.31;;;21.97;90.08
11808;BME280;5961;42.640;23.380;2022-07-29T05:20:03;94263.09;;;21.99;90.34
11808;BME280;5961;42.640;23.380;2022-07-29T05:22:30;94258.81;;;22.05;90.13
11808;BME280;5961;42.640;23.380;2022-07-29T05:24:57;94256.44;;;22.10;90.08
11808;BME280;5961;42.640;23.380;2022-07-29T05:27:24;94263.38;;;22.11;89.24
11808;BME280;5961;42.640;23.380;2022-07-29T05:29:50;94269.91;;;22.17;89.03
11808;BME280;5961;42.640;23.380;2022-07-29T05:32:17;94261.31;;;22.26;89.05
11808;BME280;5961;42.640;23.380;2022-07-29T05:34:44;94265.53;;;22.30;88.84
11808;BME280;5961;42.640;23.380;2022-07-29T05:37:12;94259.25;;;22.40;87.98
11808;BME280;5961;42.640;23.380;2022-07-29T05:39:39;94258.88;;;22.42;87.45
11808;BME280;5961;42.640;23.380;2022-07-29T05:42:08;94251.13;;;22.40;87.05
11808;BME280;5961;42.640;23.380;2022-07-29T05:44:36;94267.22;;;22.55;86.29
11808;BME280;5961;42.640;23.380;2022-07-29T05:47:03;94256.78;;;22.57;85.54
11808;BME280;5961;42.640;23.380;2022-07-29T05:49:30;94265.25;;;22.62;84.76
11808;BME280;5961;42.640;23.380;2022-07-29T05:51:56;94267.50;;;22.71;84.38
11808;BME280;5961;42.640;23.380;2022-07-29T05:54:24;94270.53;;;22.76;85.04
11808;BME280;5961;42.640;23.380;2022-07-29T05:56:51;94268.53;;;22.84;83.55
11808;BME280;5961;42.640;23.380;2022-07-29T05:59:18;94258.84;;;22.83;84.04
11808;BME280;5961;42.640;23.380;2022-07-29T06:01:45;94276.53;;;22.94;84.03
11808;BME280;5961;42.640;23.380;2022-07-29T06:04:11;94275.31;;;22.99;83.34
11808;BME280;5961;42.640;23.380;2022-07-29T06:06:38;94272.50;;;23.06;83.23
11808;BME280;5961;42.640;23.380;2022-07-29T06:09:05;94262.09;;;23.05;82.82
11808;BME280;5961;42.640;23.380;2022-07-29T06:11:33;94283.97;;;23.21;82.25
11808;BME280;5961;42.640;23.380;2022-07-29T06:14:00;94280.84;;;23.22;81.55
11808;BME280;5961;42.640;23.380;2022-07-29T06:16:28;94286.22;;;23.26;80.86
11808;BME280;5961;42.640;23.380;2022-07-29T06:18:55;94284.56;;;23.35;80.73
11808;BME280;5961;42.640;23.380;2022-07-29T06:21:21;94280.28;;;23.38;81.85
11808;BME280;5961;42.640;23.380;2022-07-29T06:23:48;94279.84;;;23.43;82.40
11808;BME280;5961;42.640;23.380;2022-07-29T06:26:15;94282.84;;;23.48;82.76
11808;BME280;5961;42.640;23.380;2022-07-29T06:28:43;94284.41;;;23.49;82.63
11808;BME280;5961;42.640;23.380;2022-07-29T06:31:09;94277.44;;;23.48;82.00
11808;BME280;5961;42.640;23.380;2022-07-29T06:33:36;94283.94;;;23.55;81.62
11808;BME280;5961;42.640;23.380;2022-07-29T06:36:04;94275.38;;;23.60;81.79
11808;BME280;5961;42.640;23.380;2022-07-29T06:38:31;94284.22;;;23.64;81.87
11808;BME280;5961;42.640;23.380;2022-07-29T06:40:58;94280.69;;;23.67;81.92
11808;BME280;5961;42.640;23.380;2022-07-29T06:43:31;94276.78;;;23.68;82.50
11808;BME280;5961;42.640;23.380;2022-07-29T06:46:05;94269.38;;;23.72;81.83
11808;BME280;5961;42.640;23.380;2022-07-29T06:48:32;94274.69;;;23.79;81.63
11808;BME280;5961;42.640;23.380;2022-07-29T06:50:59;94273.88;;;23.82;81.15
11808;BME280;5961;42.640;23.380;2022-07-29T06:53:27;94277.25;;;23.89;81.09
11808;BME280;5961;42.640;23.380;2022-07-29T06:55:53;94275.31;;;23.90;80.53
11808;BME280;5961;42.640;23.380;2022-07-29T06:58:20;94277.56;;;23.95;79.85
11808;BME280;5961;42.640;23.380;2022-07-29T07:00:47;94275.91;;;24.01;79.90
11808;BME280;5961;42.640;23.380;2022-07-29T07:03:17;94274.38;;;24.00;80.14
11808;BME280;5961;42.640;23.380;2022-07-29T07:05:44;94263.50;;;24.00;79.26
11808;BME280;5961;42.640;23.380;2022-07-29T07:08:11;94265.69;;;24.12;79.11
11808;BME280;5961;42.640;23.380;2022-07-29T07:10:38;94262.13;;;24.15;77.68
11808;BME280;5961;42.640;23.380;2022-07-29T07:13:05;94268.28;;;24.19;77.07
11808;BME280;5961;42.640;23.380;2022-07-29T07:15:32;94272.84;;;24.26;76.34
11808;BME280;5961;42.640;23.380;2022-07-29T07:17:59;94270.13;;;24.26;76.16
11808;BME280;5961;42.640;23.380;2022-07-29T07:20:27;94275.84;;;24.31;76.54
11808;BME280;5961;42.640;23.380;2022-07-29T07:22:54;94281.63;;;24.33;76.49
11808;BME280;5961;42.640;23.380;2022-07-29T07:25:20;94279.63;;;24.37;75.28
11808;BME280;5961;42.640;23.380;2022-07-29T07:27:47;94271.13;;;24.35;74.85
11808;BME280;5961;42.640;23.380;2022-07-29T07:30:14;94274.09;;;24.44;74.76
11808;BME280;5961;42.640;23.380;2022-07-29T07:32:41;94270.53;;;24.47;73.63
11808;BME280;5961;42.640;23.380;2022-07-29T07:35:09;94263.91;;;24.48;73.37
11808;BME280;5961;42.640;23.380;2022-07-29T07:37:38;94263.03;;;24.55;72.14
11808;BME280;5961;42.640;23.380;2022-07-29T07:40:06;94264.91;;;24.58;72.24
11808;BME280;5961;42.640;23.380;2022-07-29T07:42:33;94269.94;;;24.60;71.90
11808;BME280;5961;42.640;23.380;2022-07-29T07:45:00;94263.25;;;24.64;71.53
11808;BME280;5961;42.640;23.380;2022-07-29T07:47:27;94261.69;;;24.63;71.96
11808;BME280;5961;42.640;23.380;2022-07-29T07:49:54;94267.44;;;24.69;70.98
11808;BME280;5961;42.640;23.380;2022-07-29T07:52:21;94266.25;;;24.70;71.09
11808;BME280;5961;42.640;23.380;2022-07-29T07:54:49;94270.06;;;24.72;70.38
11808;BME280;5961;42.640;23.380;2022-07-29T07:57:16;94260.34;;;24.75;70.75
11808;BME280;5961;42.640;23.380;2022-07-29T07:59:43;94267.66;;;24.78;70.19
11808;BME280;5961;42.640;23.380;2022-07-29T08:02:10;94269.03;;;24.89;70.43
11808;BME280;5961;42.640;23.380;2022-07-29T08:04:36;94267.38;;;24.95;69.29
11808;BME280;5961;42.640;23.380;2022-07-29T08:07:06;94261.84;;;24.99;69.31
11808;BME280;5961;42.640;23.380;2022-07-29T08:09:34;94262.53;;;25.03;69.05
11808;BME280;5961;42.640;23.380;2022-07-29T08:12:04;94269.72;;;25.13;67.62
11808;BME280;5961;42.640;23.380;2022-07-29T08:14:31;94266.16;;;25.16;67.42
11808;BME280;5961;42.640;23.380;2022-07-29T08:16:59;94259.13;;;25.19;66.71
11808;BME280;5961;42.640;23.380;2022-07-29T08:19:25;94260.59;;;25.23;65.74
11808;BME280;5961;42.640;23.380;2022-07-29T08:21:52;94256.53;;;25.31;66.46
11808;BME280;5961;42.640;23.380;2022-07-29T08:24:19;94255.97;;;25.40;65.77
11808;BME280;5961;42.640;23.380;2022-07-29T08:27:05;94260.84;;;25.48;64.75
11808;BME280;5961;42.640;23.380;2022-07-29T08:29:32;94254.84;;;25.57;63.85
11808;BME280;5961;42.640;23.380;2022-07-29T08:31:58;94257.41;;;25.64;63.11
11808;BME280;5961;42.640;23.380;2022-07-29T08:34:25;94254.28;;;25.66;63.06
11808;BME280;5961;42.640;23.380;2022-07-29T08:36:52;94266.88;;;25.76;61.29
11808;BME280;5961;42.640;23.380;2022-07-29T08:39:19;94258.97;;;25.81;60.57
11808;BME280;5961;42.640;23.380;2022-07-29T08:41:45;94247.91;;;25.88;60.25
11808;BME280;5961;42.640;23.380;2022-07-29T08:44:15;94255.16;;;25.95;60.32
11808;BME280;5961;42.640;23.380;2022-07-29T08:46:42;94239.50;;;25.99;60.84
11808;BME280;5961;42.640;23.380;2022-07-29T08:49:08;94247.41;;;26.09;59.90
11808;BME280;5961;42.640;23.380;2022-07-29T08:51:36;94246.06;;;26.17;58.83
11808;BME280;5961;42.640;23.380;2022-07-29T08:54:03;94247.78;;;26.28;56.62
11808;BME280;5961;42.640;23.380;2022-07-29T08:56:29;94237.81;;;26.37;56.50
11808;BME280;5961;42.640;23.380;2022-07-29T08:58:57;94233.03;;;26.41;55.84
11808;BME280;5961;42.640;23.380;2022-07-29T09:01:27;94259.25;;;26.51;55.86
11808;BME280;5961;42.640;23.380;2022-07-29T09:03:56;94234.88;;;26.60;56.46
11808;BME280;5961;42.640;23.380;2022-07-29T09:06:24;94241.25;;;26.70;54.89
11808;BME280;5961;42.640;23.380;2022-07-29T09:08:53;94243.03;;;26.77;55.16
11808;BME280;5961;42.640;23.380;2022-07-29T09:11:21;94245.06;;;26.89;54.93
11808;BME280;5961;42.640;23.380;2022-07-29T09:13:48;94243.25;;;26.98;54.96
11808;BME280;5961;42.640;23.380;2022-07-29T09:16:15;94230.34;;;26.99;54.85
11808;BME280;5961;42.640;23.380;2022-07-29T09:18:45;94239.03;;;27.10;54.92
11808;BME280;5961;42.640;23.380;2022-07-29T09:21:14;94235.09;;;27.11;54.34
11808;BME280;5961;42.640;23.380;2022-07-29T09:24:00;94242.97;;;27.21;55.28
11808;BME280;5961;42.640;23.380;2022-07-29T09:26:28;94237.75;;;27.27;54.82
11808;BME280;5961;42.640;23.380;2022-07-29T09:28:54;94237.66;;;27.31;55.70
11808;BME280;5961;42.640;23.380;2022-07-29T09:31:32;94241.47;;;27.33;55.18
11808;BME280;5961;42.640;23.380;2022-07-29T09:34:01;94235.25;;;27.33;55.08
11808;BME280;5961;42.640;23.380;2022-07-29T09:36:28;94234.28;;;27.39;54.82
11808;BME280;5961;42.640;23.380;2022-07-29T09:38:58;94234.59;;;27.41;54.05
11808;BME280;5961;42.640;23.380;2022-07-29T09:41:26;94229.53;;;27.43;54.16
11808;BME280;5961;42.640;23.380;2022-07-29T09:43:54;94237.16;;;27.48;54.30
11808;BME280;5961;42.640;23.380;2022-07-29T09:46:21;94219.25;;;27.47;54.63
11808;BME280;5961;42.640;23.380;2022-07-29T09:49:07;94230.72;;;27.55;54.75
11808;BME280;5961;42.640;23.380;2022-07-29T09:51:34;94227.03;;;27.61;54.79
11808;BME280;5961;42.640;23.380;2022-07-29T09:54:01;94220.25;;;27.66;53.72
11808;BME280;5961;42.640;23.380;2022-07-29T09:56:39;94221.22;;;27.72;54.54
11808;BME280;5961;42.640;23.380;2022-07-29T09:59:07;94213.81;;;27.72;53.85
11808;BME280;5961;42.640;23.380;2022-07-29T10:01:34;94216.75;;;27.78;53.44
11808;BME280;5961;42.640;23.380;2022-07-29T10:04:02;94208.25;;;27.89;53.15
11808;BME280;5961;42.640;23.380;2022-07-29T10:06:30;94216.09;;;27.99;52.13
11808;BME280;5961;42.640;23.380;2022-07-29T10:09:07;94208.13;;;28.05;53.13
11808;BME280;5961;42.640;23.380;2022-07-29T10:11:33;94205.16;;;28.12;53.69
11808;BME280;5961;42.640;23.380;2022-07-29T10:14:01;94208.44;;;28.19;53.17
11808;BME280;5961;42.640;23.380;2022-07-29T10:16:29;94196.50;;;28.26;52.87
11808;BME280;5961;42.640;23.380;2022-07-29T10:18:58;94200.84;;;28.36;53.91
11808;BME280;5961;42.640;23.380;2022-07-29T10:21:25;94165.47;;;28.20;53.04
11808;BME280;5961;42.640;23.380;2022-07-29T10:23:53;94195.91;;;28.44;52.66
11808;BME280;5961;42.640;23.380;2022-07-29T10:26:20;94195.34;;;28.49;52.28
11808;BME280;5961;42.640;23.380;2022-07-29T10:28:47;94185.81;;;28.53;52.92
11808;BME280;5961;42.640;23.380;2022-07-29T10:31:21;94188.44;;;28.57;52.17
11808;BME280;5961;42.640;23.380;2022-07-29T10:33:56;94180.53;;;28.59;50.87
11808;BME280;5961;42.640;23.380;2022-07-29T10:36:40;94186.56;;;28.66;51.15
11808;BME280;5961;42.640;23.380;2022-07-29T10:39:19;94179.44;;;28.69;50.75
11808;BME280;5961;42.640;23.380;2022-07-29T10:42:08;94186.16;;;28.77;50.43
11808;BME280;5961;42.640;23.380;2022-07-29T10:44:40;94182.25;;;28.78;48.25
11808;BME280;5961;42.640;23.380;2022-07-29T10:47:07;94177.53;;;28.78;48.83
11808;BME280;5961;42.640;23.380;2022-07-29T10:49:35;94181.22;;;28.84;49.15
11808;BME280;5961;42.640;23.380;2022-07-29T10:52:04;94177.13;;;28.89;49.09
11808;BME280;5961;42.640;23.380;2022-07-29T10:54:47;94172.50;;;28.99;49.20
11808;BME280;5961;42.640;23.380;2022-07-29T10:57:26;94162.31;;;28.99;48.23
11808;BME280;5961;42.640;23.380;2022-07-29T11:00:28;94162.38;;;29.08;47.15
11808;BME280;5961;42.640;23.380;2022-07-29T11:02:55;94152.44;;;29.02;45.88
11808;BME280;5961;42.640;23.380;2022-07-29T11:05:23;94167.47;;;29.19;45.99
11808;BME280;5961;42.640;23.380;2022-07-29T11:08:20;94171.78;;;29.29;47.36
11808;BME280;5961;42.640;23.380;2022-07-29T11:10:51;94156.38;;;29.22;47.17
11808;BME280;5961;42.640;23.380;2022-07-29T11:13:45;94157.84;;;29.36;46.17
11808;BME280;5961;42.640;23.380;2022-07-29T11:16:12;94160.03;;;29.50;47.21
11808;BME280;5961;42.640;23.380;2022-07-29T11:21:41;94146.44;;;29.77;45.37
11808;BME280;5961;42.640;23.380;2022-07-29T11:24:12;94152.00;;;29.96;44.58
11808;BME280;5961;42.640;23.380;2022-07-29T11:26:41;94062.38;;;29.56;44.86
11808;BME280;5961;42.640;23.380;2022-07-29T11:29:16;94142.31;;;30.22;43.71
11808;BME280;5961;42.640;23.380;2022-07-29T11:31:46;94137.44;;;30.35;43.73
11808;BME280;5961;42.640;23.380;2022-07-29T11:34:19;94138.69;;;30.52;42.34
11808;BME280;5961;42.640;23.380;2022-07-29T11:40:14;94135.03;;;30.82;40.78
11808;BME280;5961;42.640;23.380;2022-07-29T11:42:47;94138.84;;;30.94;40.74
11808;BME280;5961;42.640;23.380;2022-07-29T11:45:17;94133.34;;;31.03;39.78
11808;BME280;5961;42.640;23.380;2022-07-29T11:47:49;94151.59;;;31.15;38.84
11808;BME280;5961;42.640;23.380;2022-07-29T11:50:17;94141.06;;;31.23;37.85
11808;BME280;5961;42.640;23.380;2022-07-29T11:52:52;94136.16;;;31.27;37.83
11808;BME280;5961;42.640;23.380;2022-07-29T11:55:20;94128.09;;;31.23;39.14
11808;BME280;5961;42.640;23.380;2022-07-29T11:57:50;94125.03;;;31.30;38.99
11808;BME280;5961;42.640;23.380;2022-07-29T12:00:23;94134.28;;;31.42;36.51
11808;BME280;5961;42.640;23.380;2022-07-29T12:02:50;94108.03;;;31.41;36.02
11808;BME280;5961;42.640;23.380;2022-07-29T12:05:17;94126.50;;;31.49;35.99
11808;BME280;5961;42.640;23.380;2022-07-29T12:07:44;94122.38;;;31.54;36.44
11808;BME280;5961;42.640;23.380;2022-07-29T12:10:11;94123.28;;;31.51;36.50
11808;BME280;5961;42.640;23.380;2022-07-29T12:12:38;94123.25;;;31.60;36.46
11808;BME280;5961;42.640;23.380;2022-07-29T12:15:16;94129.69;;;31.57;36.03
11808;BME280;5961;42.640;23.380;2022-07-29T12:17:46;94115.78;;;31.61;37.75
11808;BME280;5961;42.640;23.380;2022-07-29T12:20:22;94126.41;;;31.68;37.97
11808;BME280;5961;42.640;23.380;2022-07-29T12:22:49;94124.09;;;31.75;36.54
11808;BME280;5961;42.640;23.380;2022-07-29T12:25:15;94123.03;;;31.73;36.41
11808;BME280;5961;42.640;23.380;2022-07-29T12:27:44;94131.41;;;31.78;37.14
11808;BME280;5961;42.640;23.380;2022-07-29T12:30:13;94124.06;;;31.84;36.85
11808;BME280;5961;42.640;23.380;2022-07-29T12:32:44;94125.22;;;31.92;35.45
11808;BME280;5961;42.640;23.380;2022-07-29T12:35:13;94122.88;;;32.09;35.79
11808;BME280;5961;42.640;23.380;2022-07-29T12:37:42;94124.25;;;32.04;34.84
11808;BME280;5961;42.640;23.380;2022-07-29T12:40:10;94115.28;;;32.19;35.18
11808;BME280;5961;42.640;23.380;2022-07-29T12:42:38;94115.53;;;32.30;35.06
11808;BME280;5961;42.640;23.380;2022-07-29T12:45:06;94088.38;;;32.23;35.86
11808;BME280;5961;42.640;23.380;2022-07-29T12:47:33;94111.88;;;32.47;35.50
11808;BME280;5961;42.640;23.380;2022-07-29T12:50:19;94114.91;;;32.49;33.90
11808;BME280;5961;42.640;23.380;2022-07-29T12:52:46;94105.75;;;32.67;34.36
11808;BME280;5961;42.640;23.380;2022-07-29T12:55:13;94113.28;;;32.67;33.36
11808;BME280;5961;42.640;23.380;2022-07-29T12:57:47;94126.47;;;32.77;33.11
11808;BME280;5961;42.640;23.380;2022-07-29T13:00:16;94101.72;;;32.77;34.16
11808;BME280;5961;42.640;23.380;2022-07-29T13:02:43;94098.00;;;32.80;34.47
11808;BME280;5961;42.640;23.380;2022-07-29T13:05:11;94094.59;;;32.85;33.90
11808;BME280;5961;42.640;23.380;2022-07-29T13:07:40;94109.22;;;32.91;34.23
11808;BME280;5961;42.640;23.380;2022-07-29T13:10:11;94044.47;;;32.67;34.11
11808;BME280;5961;42.640;23.380;2022-07-29T13:13:03;94090.50;;;32.95;33.80
11808;BME280;5961;42.640;23.380;2022-07-29T13:15:30;94081.22;;;32.93;33.40
11808;BME280;5961;42.640;23.380;2022-07-29T13:17:56;94080.06;;;32.99;33.17